首页
METAR-TAF:

METAR-TAF

机场 :

仰光国际机场

仰光, 缅甸

纬度: 16-46N, 经度: 096-10E, 海拔: 14米

当前天气观测

该预报发布于21分钟前的03:30 UTC
风速10节,风向西转西南
温度 30°C
湿度 79%
气压 1006 hPa
能見度: 7000
多云层高于1600英尺
少量云层高于2000英尺, 积雨云.
多云层高于10000英尺

METAR: VYYY 140330Z 24010KT 7000 BKN016 FEW020CB BKN100 30/26 Q1006

时间: 10:21 (03:51 UTC)

预报

该预报发布于4小时和51分钟前的23:00 UTC
预报有效从14日的 00点(UTC)到 14日的 24点(UTC)
风速5节,风向西南
能見度: 7000
多云层高于2000英尺
少量云层高于2500英尺, 积雨云.
阴天层高于10000英尺
短暂存在
从 14日的 00点(UTC)到 14日的 06点(UTC)
风速7节,风向南转西南
能見度: 4000
多云层高于1500英尺
少量云层高于2000英尺, 积雨云.
阴天层高于9000英尺
雷暴, 雨
短暂存在
从 14日的 06点(UTC)到 14日的 12点(UTC)
风速10节,风向西南
能見度: 5000
小雨,

TAF: VYYY 132300Z 1400/1424 22005KT 7000 BKN020 FEW025CB OVC100 TEMPO 1400/1406 20007KT 4000 TSRA BKN015 FEW020CB OVC090 TEMPO 1406/1412 22010KT 5000 -RA

超过4000个机场的气象观测和天气预报(METAR&TAF报告)。

可查询的气象台以黄色和红色小点在地图上表示。

将鼠标移到小点上方,可查看气象台名称。

然后点击查看天气观测和预报。

如需切换地图:点击带黑十字的绿色按钮放大地图;点击带横线的绿色按钮缩小地图;或者点击绿色箭头查看邻近地区的地图。


METAR-TAF: